createdAt,value
2022-11-24T00:00:30.247Z,100388.00
2022-11-24T00:02:56.762Z,100405.00
2022-11-24T00:05:23.639Z,100400.50
2022-11-24T00:07:50.187Z,100396.34
2022-11-24T00:10:16.787Z,100406.50
2022-11-24T00:12:43.315Z,100405.34
2022-11-24T00:15:10.072Z,100404.19
2022-11-24T00:17:36.468Z,100403.34
2022-11-24T00:20:03.023Z,100403.84
2022-11-24T00:22:29.473Z,100400.13
2022-11-24T00:24:55.863Z,100402.00
2022-11-24T00:27:22.267Z,100368.88
2022-11-24T00:29:48.812Z,100401.97
2022-11-24T00:32:15.217Z,100403.31
2022-11-24T00:34:41.975Z,100402.97
2022-11-24T00:37:08.396Z,100407.94
2022-11-24T00:39:34.786Z,100415.28
2022-11-24T00:42:01.991Z,100417.28
2022-11-24T00:44:28.436Z,100406.91
2022-11-24T00:46:54.972Z,100377.50
2022-11-24T00:49:21.530Z,100395.59
2022-11-24T00:51:47.957Z,100406.59
2022-11-24T00:54:14.356Z,100402.91
2022-11-24T00:56:40.756Z,100399.25
2022-11-24T00:59:07.295Z,100401.91
2022-11-24T01:01:34.061Z,100403.91
2022-11-24T01:04:02.021Z,100403.56
2022-11-24T01:06:29.776Z,100396.88
2022-11-24T01:08:57.781Z,100408.25
2022-11-24T01:11:27.345Z,100411.84
2022-11-24T01:13:59.518Z,100418.88
2022-11-24T01:16:32.342Z,100424.69
2022-11-24T01:18:59.213Z,100423.56
2022-11-24T01:21:25.873Z,100418.72
2022-11-24T01:23:52.464Z,100422.88
2022-11-24T01:26:21.022Z,100428.41
2022-11-24T01:28:48.126Z,100434.03
2022-11-24T01:31:15.993Z,100447.53
2022-11-24T01:33:42.542Z,100445.56
2022-11-24T01:36:09.010Z,100460.44
2022-11-24T01:38:35.454Z,100456.88
2022-11-24T01:41:06.176Z,100456.56
2022-11-24T01:43:33.359Z,100458.84
2022-11-24T01:46:24.838Z,100464.03
2022-11-24T01:49:11.760Z,100465.72
2022-11-24T01:52:01.122Z,100477.88
2022-11-24T01:54:33.737Z,100476.47
2022-11-24T01:57:25.978Z,100474.56
2022-11-24T01:59:59.641Z,100467.97
2022-11-24T02:02:29.440Z,100487.56
2022-11-24T02:05:00.167Z,100483.50
2022-11-24T02:07:27.032Z,100493.88
2022-11-24T02:09:57.806Z,100495.72
2022-11-24T02:12:26.900Z,100496.91
2022-11-24T02:14:55.717Z,100503.88
2022-11-24T02:17:22.488Z,100504.56
2022-11-24T02:19:57.433Z,100493.50
2022-11-24T02:22:56.623Z,100508.28
2022-11-24T02:25:27.867Z,100503.56
2022-11-24T02:27:56.126Z,100505.41
2022-11-24T02:30:23.663Z,100506.53
2022-11-24T02:32:51.281Z,100515.91
2022-11-24T02:35:17.880Z,100501.34
2022-11-24T02:37:44.316Z,100509.97
2022-11-24T02:40:11.109Z,100517.13
2022-11-24T02:42:42.651Z,100511.41
2022-11-24T02:45:11.312Z,100521.56
2022-11-24T02:47:37.781Z,100509.53
2022-11-24T02:50:04.597Z,100517.97
2022-11-24T02:52:31.489Z,100520.72
2022-11-24T02:54:57.905Z,100511.88
2022-11-24T02:57:24.384Z,100533.28
2022-11-24T02:59:50.845Z,100535.59
2022-11-24T03:02:17.327Z,100542.28
2022-11-24T03:04:44.596Z,100535.13
2022-11-24T03:07:11.166Z,100534.63
2022-11-24T03:09:37.733Z,100532.66
2022-11-24T03:12:04.269Z,100537.72
2022-11-24T03:14:30.701Z,100538.44
2022-11-24T03:16:57.119Z,100535.56
2022-11-24T03:19:23.534Z,100531.03
2022-11-24T03:21:50.049Z,100535.56
2022-11-24T03:24:16.471Z,100534.28
2022-11-24T03:26:43.363Z,100545.47
2022-11-24T03:29:09.962Z,100532.66
2022-11-24T03:31:36.532Z,100550.53
2022-11-24T03:34:03.101Z,100552.97
2022-11-24T03:36:29.543Z,100560.50
2022-11-24T03:38:56.382Z,100552.78
2022-11-24T03:41:22.787Z,100553.66
2022-11-24T03:43:49.248Z,100559.84
2022-11-24T03:46:15.778Z,100561.69
2022-11-24T03:48:42.274Z,100570.53
2022-11-24T03:51:09.942Z,100537.03
2022-11-24T03:53:36.524Z,100556.69
2022-11-24T03:56:03.702Z,100564.00
2022-11-24T03:58:30.733Z,100566.19
2022-11-24T04:00:57.643Z,100564.03
2022-11-24T04:03:24.801Z,100567.88
2022-11-24T04:05:52.020Z,100578.91
2022-11-24T04:08:18.922Z,100588.25
2022-11-24T04:10:49.658Z,100584.88
2022-11-24T04:13:17.808Z,100581.84
2022-11-24T04:15:45.000Z,100591.50
2022-11-24T04:18:12.590Z,100587.00
2022-11-24T04:20:40.457Z,100592.13
2022-11-24T04:23:07.501Z,100592.53
2022-11-24T04:25:33.982Z,100593.88
2022-11-24T04:28:00.343Z,100610.25
2022-11-24T04:30:28.113Z,100609.19
2022-11-24T04:32:54.565Z,100615.66
2022-11-24T04:35:21.522Z,100611.16
2022-11-24T04:37:48.049Z,100609.59
2022-11-24T04:40:14.888Z,100619.50
2022-11-24T04:42:41.663Z,100625.34
2022-11-24T04:45:08.550Z,100625.53
2022-11-24T04:47:35.025Z,100632.53
2022-11-24T04:50:01.656Z,100628.50
2022-11-24T04:52:29.903Z,100640.72
2022-11-24T04:54:56.241Z,100641.34
2022-11-24T04:57:25.286Z,100646.44
2022-11-24T04:59:52.646Z,100646.75
2022-11-24T05:02:19.194Z,100639.44
2022-11-24T05:04:46.110Z,100647.06
2022-11-24T05:07:18.315Z,100654.53
2022-11-24T05:10:18.986Z,100649.03
2022-11-24T05:12:51.043Z,100656.75
2022-11-24T05:15:17.768Z,100650.41
2022-11-24T05:17:44.135Z,100656.53
2022-11-24T05:20:10.754Z,100655.44
2022-11-24T05:22:37.196Z,100668.06
2022-11-24T05:25:03.770Z,100669.69
2022-11-24T05:27:30.150Z,100669.69
2022-11-24T05:29:56.508Z,100686.41
2022-11-24T05:32:23.509Z,100654.97
2022-11-24T05:34:50.417Z,100685.31
2022-11-24T05:37:17.697Z,100692.94
2022-11-24T05:39:44.353Z,100698.25
2022-11-24T05:42:29.664Z,100698.13
2022-11-24T05:44:57.333Z,100698.88
2022-11-24T05:47:24.029Z,100701.75
2022-11-24T05:49:50.354Z,100709.00
2022-11-24T05:52:17.145Z,100689.28
2022-11-24T05:54:43.610Z,100709.94
2022-11-24T05:57:10.000Z,100715.19
2022-11-24T05:59:36.349Z,100712.94
2022-11-24T06:02:03.064Z,100713.22
2022-11-24T06:04:29.564Z,100729.84
2022-11-24T06:06:55.973Z,100731.06
2022-11-24T06:09:22.351Z,100741.69
2022-11-24T06:11:48.947Z,100739.91
2022-11-24T06:14:15.524Z,100746.16
2022-11-24T06:16:42.023Z,100749.50
2022-11-24T06:19:10.442Z,100748.97
2022-11-24T06:21:36.936Z,100761.34
2022-11-24T06:24:03.577Z,100769.16
2022-11-24T06:26:29.947Z,100769.75
2022-11-24T06:28:56.329Z,100775.00
2022-11-24T06:31:22.824Z,100772.75
2022-11-24T06:33:49.259Z,100784.97
2022-11-24T06:36:15.763Z,100782.38
2022-11-24T06:38:42.118Z,100789.44
2022-11-24T06:41:13.110Z,100790.16
2022-11-24T06:43:39.967Z,100800.69
2022-11-24T06:46:06.530Z,100800.59
2022-11-24T06:48:33.257Z,100805.63
2022-11-24T06:51:07.902Z,100815.75
2022-11-24T06:53:37.815Z,100799.78
2022-11-24T06:56:15.186Z,100816.44
2022-11-24T06:58:44.291Z,100832.47
2022-11-24T07:01:15.737Z,100832.78
2022-11-24T07:03:42.259Z,100837.28
2022-11-24T07:06:08.917Z,100839.25
2022-11-24T07:08:35.393Z,100841.63
2022-11-24T07:11:10.094Z,100847.09
2022-11-24T07:13:36.564Z,100853.97
2022-11-24T07:16:23.543Z,100860.38
2022-11-24T07:18:51.418Z,100851.84
2022-11-24T07:21:19.542Z,100860.22
2022-11-24T07:23:49.989Z,100854.63
2022-11-24T07:26:16.833Z,100857.41
2022-11-24T07:28:43.251Z,100843.13
2022-11-24T07:31:15.865Z,100856.00
2022-11-24T07:33:42.494Z,100875.09
2022-11-24T07:36:09.587Z,100879.31
2022-11-24T07:38:36.083Z,100886.06
2022-11-24T07:41:04.795Z,100880.16
2022-11-24T07:43:32.416Z,100869.22
2022-11-24T07:45:59.307Z,100888.03
2022-11-24T07:48:26.008Z,100883.28
2022-11-24T07:50:55.745Z,100898.97
2022-11-24T07:53:22.622Z,100897.31
2022-11-24T07:55:56.828Z,100898.13
2022-11-24T07:58:23.312Z,100900.66
2022-11-24T08:00:49.994Z,100902.88
2022-11-24T08:03:16.643Z,100910.34
2022-11-24T08:06:07.818Z,100910.91
2022-11-24T08:08:33.313Z,100916.66
2022-11-24T08:11:05.878Z,100918.47
2022-11-24T08:13:32.330Z,100908.47
2022-11-24T08:15:58.688Z,100916.22
2022-11-24T08:18:25.205Z,100920.97
2022-11-24T08:20:51.624Z,100926.84
2022-11-24T08:23:18.050Z,100924.56
2022-11-24T08:25:44.419Z,100923.56
2022-11-24T08:28:10.757Z,100941.78
2022-11-24T08:30:37.132Z,100940.19
2022-11-24T08:33:03.840Z,100944.94
2022-11-24T08:35:30.361Z,100936.19
2022-11-24T08:38:00.382Z,100942.50
2022-11-24T08:40:31.527Z,100949.91
2022-11-24T08:43:01.411Z,100943.25
2022-11-24T08:45:30.644Z,100925.88
2022-11-24T08:47:57.368Z,100959.19
2022-11-24T08:50:25.748Z,100947.75
2022-11-24T08:52:53.523Z,100946.13
2022-11-24T08:55:20.461Z,100950.72
2022-11-24T08:57:46.855Z,100949.75
2022-11-24T09:00:13.883Z,100949.66
2022-11-24T09:02:40.249Z,100948.38
2022-11-24T09:05:22.453Z,100960.19
2022-11-24T09:07:53.319Z,100962.25
2022-11-24T09:10:19.928Z,100962.25
2022-11-24T09:12:47.740Z,100956.47
2022-11-24T09:15:16.410Z,100961.56
2022-11-24T09:17:43.573Z,100958.56
2022-11-24T09:20:10.010Z,100954.75
2022-11-24T18:33:29.056Z,101324.38
2022-11-24T18:35:57.462Z,101327.03
2022-11-24T18:38:24.400Z,101334.63
2022-11-24T18:40:55.802Z,101338.28
2022-11-24T18:43:24.310Z,101329.72
2022-11-24T18:45:53.022Z,101324.38
2022-11-24T18:48:21.152Z,101289.00
2022-11-24T18:50:55.012Z,101325.16
2022-11-24T18:53:23.169Z,101328.69
2022-11-24T18:56:03.482Z,101325.84
2022-11-24T18:58:32.001Z,101321.03
2022-11-24T19:01:13.691Z,101333.69
2022-11-24T19:03:48.556Z,101335.88
2022-11-24T19:06:33.255Z,101339.69
2022-11-24T19:09:02.770Z,101334.22
2022-11-24T19:11:33.577Z,101339.81
2022-11-24T19:14:00.868Z,101341.75
2022-11-24T19:16:27.295Z,101340.66
2022-11-24T19:19:00.003Z,101348.63
2022-11-24T19:21:27.959Z,101338.94
2022-11-24T19:23:55.778Z,101313.84
2022-11-24T19:26:24.023Z,101340.63
2022-11-24T19:28:50.479Z,101341.16
2022-11-24T19:31:18.141Z,101340.94
2022-11-24T19:33:45.082Z,101341.22
2022-11-24T19:36:14.677Z,101338.41
2022-11-24T19:38:41.816Z,101332.53
2022-11-24T19:41:10.854Z,101332.25
2022-11-24T19:43:37.810Z,101325.22
2022-11-24T19:46:07.131Z,101327.44
2022-11-24T19:48:36.669Z,101334.66
2022-11-24T19:51:05.940Z,101333.47
2022-11-24T19:53:33.356Z,101345.78
2022-11-24T19:56:13.825Z,101314.16
2022-11-24T19:58:40.902Z,101317.09
2022-11-24T20:01:08.997Z,101343.03
2022-11-24T20:03:36.139Z,101340.06
2022-11-24T20:06:02.807Z,101330.09
2022-11-24T20:08:34.009Z,101335.44
2022-11-24T20:11:15.292Z,101326.97
2022-11-24T20:13:43.779Z,101335.28
2022-11-24T20:16:16.090Z,101338.19
2022-11-24T20:18:46.049Z,101339.34
2022-11-24T20:21:16.414Z,101327.53
2022-11-24T20:23:43.144Z,101336.06
2022-11-24T20:26:16.473Z,101332.41
2022-11-24T20:28:43.228Z,101321.53
2022-11-24T20:31:22.247Z,101326.56
2022-11-24T20:33:48.761Z,101320.34
2022-11-24T20:36:21.605Z,101319.63
2022-11-24T20:38:49.082Z,101324.53
2022-11-24T20:41:18.796Z,101331.88
2022-11-24T20:43:45.652Z,101330.28
2022-11-24T20:46:15.864Z,101327.34
2022-11-24T20:48:42.858Z,101324.44
2022-11-24T20:51:14.811Z,101328.78
2022-11-24T20:53:41.864Z,101331.28
2022-11-24T20:56:12.283Z,101320.16
2022-11-24T20:58:39.240Z,101329.56
2022-11-24T21:01:14.275Z,101332.94
2022-11-24T21:03:43.512Z,101334.00
2022-11-24T21:06:11.726Z,101329.19
2022-11-24T21:08:40.322Z,101328.84
2022-11-24T21:11:08.508Z,101334.31
2022-11-24T21:13:36.490Z,101337.81
2022-11-24T21:16:16.394Z,101339.41
2022-11-24T21:18:44.602Z,101333.47
2022-11-24T21:21:12.365Z,101322.09
2022-11-24T21:23:39.259Z,101338.66
2022-11-24T21:26:11.489Z,101336.97
2022-11-24T21:28:42.245Z,101333.78
2022-11-24T21:31:12.027Z,101336.44
2022-11-24T21:33:46.768Z,101334.75
2022-11-24T21:36:14.923Z,101319.16
2022-11-24T21:38:42.674Z,101338.53
2022-11-24T21:41:11.737Z,101319.56
2022-11-24T21:43:38.580Z,101319.88
2022-11-24T21:46:07.537Z,101321.31
2022-11-24T21:48:35.526Z,101321.06
2022-11-24T21:51:04.931Z,101309.06
2022-11-24T21:53:33.909Z,101291.09
2022-11-24T21:56:02.042Z,101313.03
2022-11-24T21:58:29.098Z,101305.75
2022-11-24T22:01:01.853Z,101309.47
2022-11-24T22:03:28.338Z,101304.13
2022-11-24T22:05:56.357Z,101274.88
2022-11-24T22:08:24.275Z,101307.63
2022-11-24T22:10:51.062Z,101307.34
2022-11-24T22:13:18.068Z,101308.63
2022-11-24T22:15:44.483Z,101303.41
2022-11-24T22:18:10.941Z,101298.91
2022-11-24T22:20:37.489Z,101297.66
2022-11-24T22:23:04.111Z,101310.00
2022-11-24T22:25:30.457Z,101298.09
2022-11-24T22:27:58.215Z,101294.97
2022-11-24T22:30:24.601Z,101302.44
2022-11-24T22:32:50.966Z,101304.66
2022-11-24T22:35:17.319Z,101297.94
2022-11-24T22:37:43.644Z,101289.75
2022-11-24T22:40:10.273Z,101297.78
2022-11-24T22:42:36.617Z,101293.19
2022-11-24T22:45:03.265Z,101293.53
2022-11-24T22:47:29.634Z,101289.19
2022-11-24T22:49:56.017Z,101275.16
2022-11-24T22:52:22.402Z,101285.00
2022-11-24T22:54:48.775Z,101284.16
2022-11-24T22:57:15.124Z,101269.00
2022-11-24T22:59:41.597Z,101253.81
2022-11-24T23:02:07.959Z,101283.91
2022-11-24T23:04:34.498Z,101282.38
2022-11-24T23:07:01.032Z,101281.94
2022-11-24T23:09:27.564Z,101271.97
2022-11-24T23:11:53.916Z,101275.53
2022-11-24T23:14:20.388Z,101271.84
